Tropical Cyclones
[Index]
Main Index Home Page Stock Weather Photos Extreme Storms Discussion Storm News and Storm Chasing Reports Tropical Cyclones / Hurricanes / Typhoons Weather Data and Links Wild Fires / Bushfires Weather Observation Techniques Weather Picture Catalogue Tornado Pictures and Reports Stock Video Footage and DVDs for sale
Season 1999-2000 Tropical Cyclone JO Track Map
Season 1999-2000 Summaries (Operational Data): [AU] [SIO] [SPAC] [SH]
<<- Previous TC | 1999-2000 Season | Next TC ->>

click for intensity scale information  Lat/long Grid: Show Hide

 Date Labels: Show Hide

Operational Tropical Cyclone Data : JTWC Advisories

Name: JO
Number: 0007

23 Jan 2000 00:00 UTC to 28 Jan 2000 06:00 UTC

    date/time    lat    long     hPa   cat  kts
2000-01-23 00   14.0   172.0     997         25          
2000-01-23 06   14.0   172.0     997         25          
2000-01-23 12   16.2   172.6     997         30          
2000-01-23 18   17.3   172.3     995         30          
2000-01-24 00   18.2   173.3     995    1    35          
2000-01-24 03   18.0   173.2     995    1    40          
2000-01-24 06   18.4   173.1     992    1    40          
2000-01-24 12   19.6   173.3     992    1    40          
2000-01-24 18   19.4   173.3     985    2    50          
2000-01-25 00   19.8   174.6     985    2    50          
2000-01-25 06   21.3   174.6     985    2    50          
2000-01-25 12   21.7   175.0     980    2    55          
2000-01-25 18   22.7   176.0     980    2    55          
2000-01-26 00   23.2   176.8     975    2    60          
2000-01-26 06   24.0   177.9     975    2    60          
2000-01-26 12   25.1   179.0     975    2    60          
2000-01-26 18   26.3   180.0     978    2    60          
2000-01-27 00   27.4   178.8W    978    2    60          
2000-01-27 06   28.3   176.9W    980    2    60          
2000-01-27 12   30.0   175.0W    984    2    55          
2000-01-27 18   29.9   170.7W    984    2    55          
2000-01-28 00   31.8   165.6W    984    2    55          
2000-01-28 06   33.0   164.0W    985    2    55          
Winds are 10-min average.

Tropical cyclone tracks developed by Michael Bath using operational warnings and advisories and Google Maps.


[Australian Severe Weather index] [Copyright Notice] [Email Contacts] [Search This Site] [Privacy Policy]
Document: tropical_cyclone_jo.htm Updated: 28 May 2013